Terminal Aerodrome Forecast
Issued by NWS

Home | Current Version | Previous Version | Text Only | Print | Product List | Glossary Off
Versions: 1 2 3 4 5 6 7 8 9 10 11 12 13 14 15 16 17 18 19 20 21

000
FTUS43 KGRB 281100
TAFAUW
TAF
KAUW 281134Z 2812/2912 28013G22KT P6SM SCT018 BKN050
      TEMPO 2812/2815 BKN018
     FM281500 26016G26KT P6SM SCT025 OVC040
     FM290000 27013G20KT P6SM OVC030=

USA.gov is the U.S. government's official web portal to all federal, state and local government web resources and services.